Time;durP1;ratioP1;P1;durP2;ratioP2;P2;SDS_P1;SDS_P2;PMS_P1;PMS_P2;Temp;Humidity;BMP_temperature;BMP_pressure;BME280_temperature;BME280_humidity;BME280_pressure;Samples;Min_cycle;Max_cycle;Signal;HPM_P1;HPM_P2
2023/10/21 00:00:57;;;;;;;12.25;8.35;;;;;;;8.34;91.09;96051.00;5011321;28;20034;-82
2023/10/21 00:03:22;;;;;;;9.55;7.40;;;;;;;8.77;89.64;96067.19;5031087;28;20033;-81
2023/10/21 00:05:48;;;;;;;13.15;9.45;;;;;;;8.36;90.30;96072.72;5029434;28;20460;-82
2023/10/21 00:08:13;;;;;;;9.35;8.23;;;;;;;8.87;89.47;96075.72;5011627;28;20076;-81
2023/10/21 00:10:39;;;;;;;14.57;10.30;;;;;;;8.82;89.03;96075.81;4996121;28;20022;-81
2023/10/21 00:13:04;;;;;;;10.98;7.25;;;;;;;8.87;89.27;96067.72;4993723;28;20041;-81
2023/10/21 00:15:30;;;;;;;12.05;9.02;;;;;;;8.76;89.44;96063.75;5011688;28;20468;-81
2023/10/21 00:17:55;;;;;;;9.95;8.35;;;;;;;8.90;89.08;96075.09;5030312;28;20028;-81
2023/10/21 00:20:21;;;;;;;15.00;10.32;;;;;;;8.60;90.33;96075.09;5013536;28;20037;-81
2023/10/21 00:22:46;;;;;;;15.25;10.55;;;;;;;8.61;91.20;96074.78;5011084;28;21282;-81
2023/10/21 00:25:11;;;;;;;9.60;7.95;;;;;;;8.94;90.03;96073.41;4979076;28;20504;-82
2023/10/21 00:27:37;;;;;;;9.85;7.63;;;;;;;8.96;89.84;96083.72;5029818;28;20132;-81
2023/10/21 00:30:02;;;;;;;9.15;7.10;;;;;;;8.99;89.25;96091.91;5029469;28;20029;-81
2023/10/21 00:32:28;;;;;;;9.02;6.53;;;;;;;8.93;89.83;96079.78;5010688;28;20472;-81
2023/10/21 00:34:53;;;;;;;9.32;7.25;;;;;;;9.06;89.57;96092.22;4982320;28;20036;-81
2023/10/21 00:37:18;;;;;;;9.68;6.72;;;;;;;9.06;89.88;96094.13;5034775;28;20025;-81
2023/10/21 00:39:44;;;;;;;10.00;6.95;;;;;;;9.04;90.13;96091.75;5010504;28;20041;-81
2023/10/21 00:42:10;;;;;;;11.65;7.43;;;;;;;9.10;89.93;96096.94;5007727;28;20034;-81
2023/10/21 00:44:35;;;;;;;9.40;6.72;;;;;;;9.12;89.68;96097.44;4997040;28;20052;-81
2023/10/21 00:47:01;;;;;;;8.05;5.88;;;;;;;9.10;89.78;96094.28;4994668;28;20033;-81
2023/10/21 00:49:28;;;;;;;11.07;7.53;;;;;;;9.16;89.47;96096.50;5013563;28;20362;-81
2023/10/21 00:51:55;;;;;;;8.95;7.47;;;;;;;9.19;89.88;96111.88;5011419;28;20029;-81
2023/10/21 00:54:22;;;;;;;8.63;6.60;;;;;;;9.11;90.04;96104.63;5025454;28;20038;-81
2023/10/21 00:56:47;;;;;;;10.63;7.15;;;;;;;9.26;89.50;96109.53;5026615;28;20044;-81
2023/10/21 00:59:13;;;;;;;9.35;7.00;;;;;;;9.27;89.63;96108.47;4981368;28;20037;-81
2023/10/21 01:01:39;;;;;;;9.23;6.68;;;;;;;9.26;89.43;96122.84;5009317;28;20056;-81
2023/10/21 01:04:05;;;;;;;14.73;8.05;;;;;;;9.04;91.40;96126.34;5013605;28;20107;-81
2023/10/21 01:06:33;;;;;;;11.57;8.27;;;;;;;9.01;91.66;96129.63;5015597;28;20455;-81
2023/10/21 01:08:59;;;;;;;10.35;7.22;;;;;;;9.11;91.64;96131.22;4999072;28;20071;-81
2023/10/21 01:11:25;;;;;;;11.57;8.88;;;;;;;8.89;92.54;96129.38;5014893;28;20091;-81
2023/10/21 01:13:51;;;;;;;9.52;7.18;;;;;;;9.21;90.67;96130.97;5031881;28;20036;-81
2023/10/21 01:16:16;;;;;;;9.18;6.53;;;;;;;9.30;90.51;96128.34;5034981;28;20099;-81
2023/10/21 01:18:42;;;;;;;9.00;6.20;;;;;;;9.26;90.49;96114.09;5017194;28;20041;-81
2023/10/21 01:21:08;;;;;;;7.32;6.25;;;;;;;9.36;90.02;96119.94;5000310;28;20052;-81
2023/10/21 01:23:34;;;;;;;11.00;6.35;;;;;;;9.35;90.20;96118.34;5012836;28;20038;-81
2023/10/21 01:26:00;;;;;;;16.25;7.95;;;;;;;9.22;90.90;96121.13;5016744;28;20047;-81
2023/10/21 01:28:26;;;;;;;7.88;6.32;;;;;;;9.30;90.69;96123.81;5034104;28;20029;-81
2023/10/21 01:30:51;;;;;;;8.65;6.63;;;;;;;9.36;90.11;96119.13;5015650;28;20030;-81
2023/10/21 01:33:17;;;;;;;7.25;6.00;;;;;;;9.28;90.77;96115.38;5033102;28;20037;-81
2023/10/21 01:35:43;;;;;;;8.60;6.05;;;;;;;9.38;90.36;96111.63;5016333;28;20080;-82
2023/10/21 01:38:09;;;;;;;6.60;5.57;;;;;;;9.46;90.63;96127.63;5004636;28;20485;-81
2023/10/21 01:40:35;;;;;;;6.63;5.15;;;;;;;9.29;93.49;96132.88;5014789;28;20060;-81
2023/10/21 01:43:01;;;;;;;7.10;5.55;;;;;;;9.29;92.02;96127.56;4998452;28;20060;-81
2023/10/21 01:45:27;;;;;;;5.70;5.10;;;;;;;9.27;94.77;96128.97;5017353;28;20045;-81
2023/10/21 01:47:53;;;;;;;6.22;4.80;;;;;;;9.28;94.33;96120.69;5030561;28;20029;-81
2023/10/21 01:50:19;;;;;;;6.13;5.10;;;;;;;9.39;92.42;96129.19;5013871;28;20029;-81
2023/10/21 01:52:44;;;;;;;6.78;5.47;;;;;;;9.30;95.35;96134.47;5032117;28;20084;-81
2023/10/21 01:55:10;;;;;;;7.13;5.40;;;;;;;9.36;93.76;96119.13;5012958;28;20394;-82
2023/10/21 01:57:36;;;;;;;6.68;4.97;;;;;;;9.40;92.31;96112.91;5014243;28;20061;-81
2023/10/21 02:00:08;;;;;;;7.72;5.75;;;;;;;9.43;94.74;96130.94;5032098;28;20485;-81
2023/10/21 02:02:37;;;;;;;5.47;4.97;;;;;;;9.42;92.79;96124.03;5032353;28;20075;-81
2023/10/21 02:05:04;;;;;;;5.45;4.85;;;;;;;9.51;92.96;96129.38;4982144;28;20457;-81
2023/10/21 02:07:36;;;;;;;7.45;4.72;;;;;;;9.50;92.30;96112.63;4999080;28;20116;-81
2023/10/21 02:10:01;;;;;;;5.50;5.00;;;;;;;9.52;93.23;96125.63;5015453;28;20033;-81
2023/10/21 02:12:29;;;;;;;6.68;5.00;;;;;;;9.52;92.64;96126.41;5032045;28;20067;-82
2023/10/21 02:14:54;;;;;;;6.28;4.57;;;;;;;9.50;92.91;96125.94;5013347;28;20029;-82
2023/10/21 02:17:19;;;;;;;8.40;5.60;;;;;;;9.48;93.27;96124.69;5030792;28;20033;-82
2023/10/21 02:19:45;;;;;;;4.82;4.10;;;;;;;9.53;92.47;96129.84;4999161;28;20045;-81
2023/10/21 02:22:10;;;;;;;7.13;5.35;;;;;;;9.55;92.76;96133.78;4981872;28;20108;-81
2023/10/21 02:24:36;;;;;;;8.27;6.43;;;;;;;9.63;92.62;96132.25;4982799;28;20088;-81
2023/10/21 02:27:02;;;;;;;7.80;5.72;;;;;;;9.51;94.05;96129.38;5009963;28;20446;-82
2023/10/21 02:29:28;;;;;;;14.07;5.63;;;;;;;9.53;93.72;96133.31;5033541;28;20029;-81
2023/10/21 02:31:55;;;;;;;5.63;4.60;;;;;;;9.61;93.23;96139.78;5013551;28;20038;-81
2023/10/21 02:34:20;;;;;;;4.13;3.63;;;;;;;9.63;92.35;96137.59;5013419;28;20033;-81
2023/10/21 02:36:47;;;;;;;6.95;5.43;;;;;;;9.51;95.41;96134.69;4994419;28;20040;-81
2023/10/21 02:39:13;;;;;;;6.38;4.15;;;;;;;9.57;93.25;96144.13;5032645;28;20037;-81
2023/10/21 02:41:38;;;;;;;9.02;5.50;;;;;;;9.62;94.11;96157.31;4995528;28;20041;-81
2023/10/21 02:44:04;;;;;;;8.45;5.47;;;;;;;9.72;93.02;96162.34;4996158;28;20053;-81
2023/10/21 02:46:29;;;;;;;8.82;6.80;;;;;;;9.65;94.17;96160.13;4992836;28;20044;-81
2023/10/21 02:48:54;;;;;;;7.55;6.85;;;;;;;9.55;95.48;96164.94;5012349;28;20431;-81
2023/10/21 02:51:20;;;;;;;15.68;8.38;;;;;;;9.54;96.23;96152.75;5011822;28;20095;-81
2023/10/21 02:53:45;;;;;;;6.57;5.07;;;;;;;9.53;95.05;96151.16;5014027;28;20072;-82
2023/10/21 02:56:13;;;;;;;7.88;7.07;;;;;;;9.49;96.87;96153.66;4995441;28;20060;-81
2023/10/21 02:58:39;;;;;;;10.52;8.18;;;;;;;9.51;96.67;96164.00;4975985;28;20025;-81
2023/10/21 03:01:15;;;;;;;5.65;5.15;;;;;;;9.49;96.34;96153.66;5030095;28;20399;-81
2023/10/21 03:03:42;;;;;;;6.15;5.55;;;;;;;9.57;94.98;96158.22;5031575;28;20072;-81
2023/10/21 03:06:08;;;;;;;4.93;4.45;;;;;;;9.67;95.35;96160.63;4997732;28;20103;-81
2023/10/21 03:08:36;;;;;;;8.23;7.20;;;;;;;9.66;93.90;96147.59;4998117;28;20051;-81
2023/10/21 03:11:03;;;;;;;7.68;4.80;;;;;;;9.75;93.47;96153.75;4977899;28;20434;-82
2023/10/21 03:13:30;;;;;;;4.95;4.45;;;;;;;9.79;93.40;96160.81;5013886;28;20039;-82
2023/10/21 03:15:55;;;;;;;8.50;7.25;;;;;;;9.77;93.33;96147.03;5009464;28;20040;-81
2023/10/21 03:18:21;;;;;;;7.10;5.90;;;;;;;9.83;91.73;96148.44;5011595;28;20041;-81
2023/10/21 03:20:50;;;;;;;5.10;4.32;;;;;;;9.85;92.07;96150.03;5012852;28;20033;-81
2023/10/21 03:23:16;;;;;;;5.13;4.32;;;;;;;9.92;91.33;96155.66;5029865;28;20035;-81
2023/10/21 03:25:41;;;;;;;4.03;3.63;;;;;;;9.93;91.02;96157.25;5009284;28;20037;-81
2023/10/21 03:28:06;;;;;;;4.63;4.20;;;;;;;9.93;91.11;96152.72;5024008;28;20071;-81
2023/10/21 03:30:32;;;;;;;5.57;5.07;;;;;;;9.91;91.37;96152.25;5007052;28;20108;-81
2023/10/21 03:32:57;;;;;;;7.25;6.38;;;;;;;9.85;91.46;96145.47;5011873;28;20029;-81
2023/10/21 03:35:22;;;;;;;7.72;6.72;;;;;;;9.79;92.74;96133.38;4999889;28;20049;-81
2023/10/21 03:37:48;;;;;;;6.97;6.25;;;;;;;9.79;92.83;96144.84;5019074;28;20041;-81
2023/10/21 03:40:13;;;;;;;5.05;4.53;;;;;;;9.78;91.60;96137.91;5032317;28;20040;-81
2023/10/21 03:42:39;;;;;;;5.05;4.35;;;;;;;9.85;92.42;96150.78;5031577;28;20025;-82
2023/10/21 03:45:05;;;;;;;10.07;7.25;;;;;;;9.79;92.16;96139.50;5008329;28;20033;-82
2023/10/21 03:47:30;;;;;;;4.90;4.40;;;;;;;9.82;91.24;96135.44;5029143;28;20033;-82
2023/10/21 03:49:57;;;;;;;4.85;4.40;;;;;;;9.91;91.17;96143.44;4978858;28;20087;-81
2023/10/21 03:52:22;;;;;;;6.28;5.32;;;;;;;9.85;91.84;96145.47;5024061;28;20040;-81
2023/10/21 03:54:47;;;;;;;4.88;4.35;;;;;;;9.88;90.92;96128.06;5028012;28;20480;-82
2023/10/21 03:57:13;;;;;;;4.85;4.30;;;;;;;9.86;90.95;96135.59;4995313;28;20037;-81
2023/10/21 03:59:38;;;;;;;7.40;6.65;;;;;;;9.85;91.82;96152.69;4982876;28;20086;-82
2023/10/21 04:02:04;;;;;;;6.13;4.80;;;;;;;9.86;91.10;96140.94;5013550;28;20033;-82
2023/10/21 04:04:29;;;;;;;10.50;8.98;;;;;;;9.61;94.19;96148.53;4980687;28;20099;-82
2023/10/21 04:06:54;;;;;;;5.50;5.00;;;;;;;9.75;93.19;96167.06;5000534;28;20074;-81
2023/10/21 04:09:20;;;;;;;5.25;4.40;;;;;;;9.77;92.30;96157.69;4977324;28;20021;-82
2023/10/21 04:11:45;;;;;;;5.40;4.25;;;;;;;9.86;91.67;96163.03;5014137;28;20087;-82
2023/10/21 04:14:10;;;;;;;6.15;5.13;;;;;;;9.90;91.41;96155.19;4995957;28;20064;-81
2023/10/21 04:16:36;;;;;;;5.35;4.85;;;;;;;9.83;91.23;96147.66;4993992;28;20040;-81
2023/10/21 04:19:01;;;;;;;5.22;4.72;;;;;;;9.87;90.97;96164.63;4989332;28;20034;-82
2023/10/21 04:21:27;;;;;;;5.38;4.47;;;;;;;9.90;91.20;96160.53;5025123;28;20037;-82
2023/10/21 04:23:52;;;;;;;5.60;4.97;;;;;;;9.89;90.96;96161.63;5012952;28;20025;-82
2023/10/21 04:26:18;;;;;;;4.85;4.43;;;;;;;9.92;91.64;96155.66;4997266;28;20052;-82
2023/10/21 04:28:43;;;;;;;5.10;4.47;;;;;;;9.82;91.13;96154.88;4994488;28;20043;-81
2023/10/21 04:31:08;;;;;;;5.25;4.40;;;;;;;9.88;91.42;96160.84;4996122;28;20060;-81
2023/10/21 04:33:34;;;;;;;5.72;4.70;;;;;;;9.97;91.58;96171.53;5029112;28;20497;-82
2023/10/21 04:36:00;;;;;;;5.03;4.53;;;;;;;9.86;91.47;96162.25;5027053;28;20025;-81
2023/10/21 04:38:25;;;;;;;5.07;4.65;;;;;;;9.94;91.41;96167.59;5028069;28;20079;-82
2023/10/21 04:40:51;;;;;;;4.72;4.28;;;;;;;9.98;91.39;96171.19;5028058;28;20029;-81
2023/10/21 04:43:16;;;;;;;9.35;7.53;;;;;;;9.82;93.50;96178.06;5012673;28;20119;-82
2023/10/21 04:45:41;;;;;;;8.02;7.22;;;;;;;9.86;92.03;96168.34;4995407;28;20037;-82
2023/10/21 04:48:07;;;;;;;8.32;7.32;;;;;;;9.80;93.94;96172.25;4993902;28;20120;-82
2023/10/21 04:50:32;;;;;;;9.48;7.90;;;;;;;9.79;94.31;96173.34;5010466;28;20028;-81
2023/10/21 04:52:59;;;;;;;5.60;5.00;;;;;;;9.96;92.09;96183.28;5032541;28;20060;-82
2023/10/21 04:55:25;;;;;;;7.30;6.28;;;;;;;9.94;91.61;96172.91;5010022;28;20072;-82
2023/10/21 04:57:50;;;;;;;9.35;6.80;;;;;;;9.97;92.02;96185.63;5011380;28;20155;-82
2023/10/21 05:00:16;;;;;;;5.90;5.30;;;;;;;10.05;91.19;96182.19;4996599;28;20033;-81
2023/10/21 05:02:41;;;;;;;4.90;4.15;;;;;;;10.09;91.02;96182.38;5010537;28;20526;-82
2023/10/21 05:05:07;;;;;;;5.60;5.03;;;;;;;10.05;91.11;96170.75;4994753;28;20036;-81
2023/10/21 05:07:32;;;;;;;5.13;4.63;;;;;;;10.15;90.95;96189.16;5019523;28;20030;-81
2023/10/21 05:09:58;;;;;;;4.85;4.30;;;;;;;10.09;91.54;96182.38;5032137;28;20036;-81
2023/10/21 05:12:23;;;;;;;4.93;4.45;;;;;;;10.07;91.20;96185.34;4979460;28;20508;-82
2023/10/21 05:14:48;;;;;;;4.57;4.15;;;;;;;10.15;91.10;96197.94;5012708;28;20033;-82
2023/10/21 05:17:14;;;;;;;5.50;4.53;;;;;;;10.19;91.35;96196.22;5010157;28;20124;-82
2023/10/21 05:19:40;;;;;;;5.60;4.07;;;;;;;10.15;91.56;96195.28;5027612;28;20022;-81
2023/10/21 05:22:06;;;;;;;5.35;4.47;;;;;;;10.10;91.52;96202.59;4995830;28;20030;-82
2023/10/21 05:24:31;;;;;;;4.35;4.03;;;;;;;10.17;91.87;96211.75;4983026;28;20076;-82
2023/10/21 05:26:57;;;;;;;5.82;3.92;;;;;;;10.25;91.49;96228.84;4996835;28;20033;-82
2023/10/21 05:29:22;;;;;;;5.30;4.38;;;;;;;10.27;91.82;96226.66;5031671;28;20075;-82
2023/10/21 05:31:49;;;;;;;6.43;4.10;;;;;;;10.29;92.14;96222.59;5011704;28;20033;-82
2023/10/21 05:34:18;;;;;;;4.40;4.00;;;;;;;10.34;91.70;96235.78;4995321;28;20029;-81
2023/10/21 05:36:44;;;;;;;4.72;3.80;;;;;;;10.28;92.08;96242.34;5030088;28;20029;-82
2023/10/21 05:39:11;;;;;;;3.75;3.45;;;;;;;10.29;92.30;96243.91;4986914;28;20548;-82
2023/10/21 05:41:37;;;;;;;4.28;3.88;;;;;;;10.30;92.38;96245.50;5023705;28;20037;-81
2023/10/21 05:44:03;;;;;;;5.10;3.25;;;;;;;10.22;94.75;96251.56;5010934;28;20040;-81
2023/10/21 05:46:28;;;;;;;4.03;3.00;;;;;;;10.26;93.20;96252.53;5026492;28;20071;-81
2023/10/21 05:48:54;;;;;;;3.10;2.80;;;;;;;10.22;93.40;96254.22;5028276;28;20030;-81
2023/10/21 05:51:19;;;;;;;3.35;3.05;;;;;;;10.31;92.45;96260.38;5032074;28;20091;-81
2023/10/21 05:53:44;;;;;;;3.60;3.30;;;;;;;10.33;92.20;96266.19;4997556;28;21051;-82
2023/10/21 05:56:12;;;;;;;2.88;2.60;;;;;;;10.44;92.38;96269.38;5015608;28;20108;-82
2023/10/21 05:58:39;;;;;;;2.72;2.53;;;;;;;10.50;92.51;96284.13;4998661;28;20033;-82
2023/10/21 06:01:08;;;;;;;3.05;2.72;;;;;;;10.44;92.60;96288.03;5030884;28;20549;-82
2023/10/21 06:03:35;;;;;;;2.83;2.55;;;;;;;10.39;92.58;96288.97;5019828;28;20094;-82
2023/10/21 06:06:02;;;;;;;2.70;2.50;;;;;;;10.42;92.67;96287.53;4997442;28;20037;-82
2023/10/21 06:08:28;;;;;;;2.63;2.40;;;;;;;10.36;92.70;96292.25;5012738;28;20041;-82
2023/10/21 06:10:54;;;;;;;2.58;2.33;;;;;;;10.44;93.00;96312.81;5014161;28;20152;-81
2023/10/21 06:13:20;;;;;;;3.45;2.20;;;;;;;10.50;92.81;96314.25;4997291;28;21036;-81
2023/10/21 06:15:47;;;;;;;2.60;2.40;;;;;;;10.55;92.59;96327.44;4998583;28;20084;-81
2023/10/21 06:18:12;;;;;;;2.67;2.40;;;;;;;10.57;92.26;96335.91;5015931;28;20112;-81
2023/10/21 06:20:38;;;;;;;2.53;2.33;;;;;;;10.56;92.31;96344.22;5032945;28;20235;-81
2023/10/21 06:23:04;;;;;;;3.15;2.22;;;;;;;10.55;93.64;96350.63;5013320;28;20033;-81
2023/10/21 06:25:30;;;;;;;3.05;2.75;;;;;;;10.50;93.23;96350.81;5014546;28;20040;-81
2023/10/21 06:27:57;;;;;;;4.38;2.50;;;;;;;10.63;92.92;96354.44;5010749;28;20083;-81
2023/10/21 06:30:23;;;;;;;2.85;2.63;;;;;;;10.57;93.94;96366.34;5034049;28;20031;-81
2023/10/21 06:32:48;;;;;;;1.70;1.45;;;;;;;10.48;95.09;96367.09;5012123;28;20029;-81
2023/10/21 06:35:13;;;;;;;2.72;1.80;;;;;;;10.51;94.95;96382.50;4996162;28;20497;-81
2023/10/21 06:37:39;;;;;;;3.65;2.50;;;;;;;10.58;93.86;96395.38;5029812;28;20033;-81
2023/10/21 06:40:06;;;;;;;3.10;1.77;;;;;;;10.66;94.41;96410.63;5014685;28;20044;-81
2023/10/21 06:42:32;;;;;;;2.10;1.90;;;;;;;10.63;95.98;96421.94;5002758;28;20056;-81
2023/10/21 06:44:58;;;;;;;1.40;1.20;;;;;;;10.65;97.02;96429.59;5013028;28;20127;-81
2023/10/21 06:47:24;;;;;;;1.45;1.27;;;;;;;10.66;98.59;96447.97;4997529;28;20398;-81
2023/10/21 06:49:49;;;;;;;1.48;1.08;;;;;;;10.66;99.80;96455.22;5033037;28;20057;-81
2023/10/21 06:52:17;;;;;;;1.10;0.82;;;;;;;10.61;100.00;96468.66;5012875;28;20021;-81
2023/10/21 06:54:43;;;;;;;0.50;0.50;;;;;;;10.63;100.00;96467.28;5012656;28;20065;-81
2023/10/21 06:57:09;;;;;;;0.70;0.55;;;;;;;10.64;100.00;96484.06;4995966;28;20036;-81
2023/10/21 06:59:34;;;;;;;1.10;0.95;;;;;;;10.67;100.00;96484.22;4997473;28;20033;-81
2023/10/21 07:02:00;;;;;;;0.70;0.70;;;;;;;10.70;100.00;96499.63;5014702;28;20036;-81
2023/10/21 07:04:25;;;;;;;1.75;0.77;;;;;;;10.70;100.00;96507.66;5017456;28;20033;-81
2023/10/21 07:06:51;;;;;;;1.08;0.90;;;;;;;10.69;100.00;96522.06;5027914;28;20071;-81
2023/10/21 07:09:16;;;;;;;1.27;0.82;;;;;;;10.64;100.00;96526.75;4995156;28;20029;-81
2023/10/21 07:11:42;;;;;;;2.25;0.93;;;;;;;10.72;100.00;96534.00;4980031;28;20478;-81
2023/10/21 07:14:08;;;;;;;0.50;0.50;;;;;;;10.72;100.00;96547.34;5012976;28;20048;-81
2023/10/21 07:16:33;;;;;;;0.85;0.80;;;;;;;10.70;100.00;96544.19;5009772;28;20034;-81
2023/10/21 07:18:58;;;;;;;0.50;0.50;;;;;;;10.77;100.00;96553.31;4994315;28;20026;-81
2023/10/21 07:21:24;;;;;;;0.60;0.60;;;;;;;10.73;100.00;96556.91;5031201;28;20159;-81
2023/10/21 07:23:49;;;;;;;0.65;0.63;;;;;;;10.77;100.00;96560.56;5023599;28;20140;-81
2023/10/21 07:26:15;;;;;;;0.88;0.50;;;;;;;10.82;100.00;96581.78;5012066;28;20029;-81
2023/10/21 07:28:40;;;;;;;1.65;0.60;;;;;;;10.87;100.00;96590.44;5010064;28;20033;-81
2023/10/21 07:31:06;;;;;;;0.70;0.47;;;;;;;10.87;100.00;96587.78;5007010;28;20030;-81
2023/10/21 07:33:31;;;;;;;1.25;0.43;;;;;;;10.92;100.00;96610.88;5010229;28;20504;-81
2023/10/21 07:35:56;;;;;;;3.10;0.77;;;;;;;10.95;100.00;96607.59;5011693;28;20034;-81
2023/10/21 07:38:22;;;;;;;1.45;1.35;;;;;;;10.97;100.00;96616.88;4996354;28;20040;-82
2023/10/21 07:40:48;;;;;;;1.13;0.73;;;;;;;10.98;100.00;96610.47;4994642;28;20041;-81
2023/10/21 07:43:16;;;;;;;2.20;0.70;;;;;;;10.99;100.00;96612.03;4992045;28;20053;-82
2023/10/21 07:45:42;;;;;;;0.65;0.63;;;;;;;10.94;99.61;96616.72;5024113;28;20021;-81
2023/10/21 07:48:07;;;;;;;1.13;0.68;;;;;;;11.00;100.00;96620.81;5009634;28;20029;-81
2023/10/21 07:50:33;;;;;;;1.52;0.70;;;;;;;11.12;100.00;96643.19;5010575;28;20025;-81
2023/10/21 07:52:58;;;;;;;1.30;0.70;;;;;;;11.07;100.00;96642.53;5009527;28;20034;-82
2023/10/21 07:55:24;;;;;;;0.98;0.70;;;;;;;11.13;100.00;96657.34;4993168;28;20034;-81
2023/10/21 07:57:49;;;;;;;1.48;0.80;;;;;;;11.14;99.85;96653.56;4998933;28;20116;-81
2023/10/21 08:00:15;;;;;;;0.77;0.63;;;;;;;11.12;100.00;96658.41;5007148;28;20038;-81
2023/10/21 08:02:41;;;;;;;0.88;0.63;;;;;;;11.16;100.00;96672.75;5000774;28;20037;-82
2023/10/21 08:05:07;;;;;;;1.20;0.70;;;;;;;11.17;99.87;96676.97;5011193;28;20487;-82
2023/10/21 08:07:33;;;;;;;1.08;0.98;;;;;;;11.16;99.84;96686.09;5029221;28;20056;-81
2023/10/21 08:09:58;;;;;;;1.35;1.00;;;;;;;11.21;99.46;96694.75;4994963;28;20053;-82
2023/10/21 08:12:24;;;;;;;0.82;0.77;;;;;;;11.26;99.18;96689.31;5004860;28;20651;-82
2023/10/21 08:14:49;;;;;;;0.98;0.65;;;;;;;11.29;98.55;96706.59;4993964;28;21907;-82
2023/10/21 08:17:15;;;;;;;2.53;0.80;;;;;;;11.29;98.56;96702.03;4990890;28;20040;-82
2023/10/21 08:19:40;;;;;;;5.82;0.90;;;;;;;11.32;98.73;96722.78;5006513;28;20040;-81
2023/10/21 08:22:06;;;;;;;0.60;0.60;;;;;;;11.36;98.84;96728.31;4998692;28;20033;-82
2023/10/21 08:24:32;;;;;;;1.77;0.90;;;;;;;11.36;98.36;96727.53;4996191;28;20495;-82
2023/10/21 08:26:59;;;;;;;0.77;0.77;;;;;;;11.35;98.90;96741.97;4995501;28;20041;-81
2023/10/21 08:29:25;;;;;;;22.98;2.22;;;;;;;11.61;99.58;96727.69;5008660;28;20029;-81
2023/10/21 08:31:50;;;;;;;15.20;2.42;;;;;;;11.59;100.00;96710.38;5009115;28;20029;-82
2023/10/21 08:34:16;;;;;;;3.00;1.13;;;;;;;11.68;100.00;96724.59;5007112;28;20036;-81
2023/10/21 08:36:42;;;;;;;1.80;0.85;;;;;;;11.73;99.31;96719.13;4993105;28;20034;-81
2023/10/21 08:39:08;;;;;;;2.15;1.02;;;;;;;11.85;98.97;96733.50;5024488;28;20033;-81
2023/10/21 08:41:37;;;;;;;2.63;0.88;;;;;;;11.92;99.58;96757.91;5029632;28;20488;-81
2023/10/21 08:44:02;;;;;;;1.27;1.00;;;;;;;12.01;98.65;96753.34;5000836;28;20107;-81
2023/10/21 08:46:30;;;;;;;2.55;1.35;;;;;;;11.98;98.42;96772.72;5011044;28;20060;-81
2023/10/21 08:48:56;;;;;;;1.20;1.08;;;;;;;12.07;98.04;96771.94;5026078;28;20039;-81
2023/10/21 08:51:21;;;;;;;1.30;0.80;;;;;;;12.09;97.22;96785.81;5005725;28;20254;-81
2023/10/21 08:53:52;;;;;;;0.85;0.80;;;;;;;12.06;97.83;96789.09;5000783;28;20041;-80
2023/10/21 08:56:17;;;;;;;0.73;0.70;;;;;;;12.04;97.56;96776.81;5024985;28;20037;-80
2023/10/21 08:58:43;;;;;;;1.80;0.90;;;;;;;12.27;97.01;96788.25;5013756;28;20053;-81
2023/10/21 09:01:13;;;;;;;0.73;0.70;;;;;;;12.34;97.18;96791.25;5028206;28;20021;-80
2023/10/21 09:03:39;;;;;;;2.58;0.77;;;;;;;12.31;96.55;96789.22;5021908;28;20535;-80
2023/10/21 09:06:11;;;;;;;4.32;1.10;;;;;;;12.25;96.58;96790.44;5022845;28;20033;-81
2023/10/21 09:08:41;;;;;;;1.50;0.70;;;;;;;12.21;96.48;96796.72;5003011;28;20501;-81
2023/10/21 09:11:07;;;;;;;0.60;0.60;;;;;;;12.19;96.49;96807.72;5002457;28;20034;-81
2023/10/21 09:13:36;;;;;;;2.72;0.88;;;;;;;12.13;97.15;96810.81;5021606;28;20030;-81
2023/10/21 09:16:19;;;;;;;3.33;0.90;;;;;;;12.15;97.38;96817.44;5003853;28;20037;-80
2023/10/21 09:18:57;;;;;;;5.05;1.00;;;;;;;12.20;97.05;96817.31;5012344;28;20477;-80
2023/10/21 09:21:32;;;;;;;1.02;0.82;;;;;;;12.22;97.40;96825.03;5021750;28;20116;-81
2023/10/21 09:24:02;;;;;;;6.90;0.98;;;;;;;12.22;98.10;96831.19;5002178;28;20052;-81
2023/10/21 09:26:38;;;;;;;3.40;1.00;;;;;;;12.24;97.32;96839.69;5015163;28;20064;-81
2023/10/21 09:29:11;;;;;;;;;;;;;;;12.32;97.29;96846.94;5011344;28;20504;-81
2023/10/21 09:31:56;;;;;;;1.02;0.82;;;;;;;12.31;96.71;96850.72;5030538;28;19921;-81
2023/10/21 09:34:25;;;;;;;1.40;0.63;;;;;;;12.29;96.15;96854.81;5026289;28;20473;-80
2023/10/21 09:36:52;;;;;;;2.67;1.02;;;;;;;12.29;95.70;96857.47;5012459;28;20021;-80
2023/10/21 09:39:18;;;;;;;0.82;0.82;;;;;;;12.32;95.59;96864.91;5018357;28;20029;-80
2023/10/21 09:41:46;;;;;;;2.17;0.60;;;;;;;12.44;94.58;96857.88;4999944;28;20036;-80
2023/10/21 09:44:14;;;;;;;0.63;0.63;;;;;;;12.43;94.68;96852.81;4994634;28;20041;-80
2023/10/21 09:46:40;;;;;;;1.55;0.70;;;;;;;12.43;94.90;96852.81;5027963;28;20043;-80
2023/10/21 09:49:06;;;;;;;0.73;0.73;;;;;;;12.49;94.40;96867.66;5026294;28;20067;-80
2023/10/21 09:51:36;;;;;;;1.75;1.20;;;;;;;12.53;94.18;96869.41;5007604;28;20057;-80
2023/10/21 09:54:10;;;;;;;1.00;1.00;;;;;;;12.47;95.70;96856.47;5029492;28;20462;-80
2023/10/21 09:56:37;;;;;;;3.75;1.42;;;;;;;12.76;95.50;96867.41;5010320;28;20392;-80
2023/10/21 09:59:05;;;;;;;2.33;1.55;;;;;;;12.99;94.36;96854.72;5026390;28;20057;-80
2023/10/21 10:01:32;;;;;;;0.73;0.65;;;;;;;13.11;92.70;96869.13;5014271;28;20095;-81
2023/10/21 10:04:13;;;;;;;1.58;1.15;;;;;;;13.23;93.10;96872.00;5029130;28;20029;-81
2023/10/21 10:06:38;;;;;;;1.33;0.90;;;;;;;13.18;91.80;96872.13;5030929;28;20593;-80
2023/10/21 10:09:06;;;;;;;2.40;1.30;;;;;;;13.22;90.59;96877.63;5022105;28;20030;-81
2023/10/21 10:11:33;;;;;;;12.63;1.40;;;;;;;13.20;91.65;96877.16;4991774;28;20122;-81
2023/10/21 10:14:00;;;;;;;9.50;1.30;;;;;;;13.40;90.97;96882.72;5016112;28;20032;-80
2023/10/21 10:16:32;;;;;;;11.02;1.55;;;;;;;13.49;90.96;96894.25;5016144;28;20556;-81
2023/10/21 10:19:00;;;;;;;15.45;2.28;;;;;;;13.48;88.73;96881.13;4994949;28;20041;-80
2023/10/21 10:21:27;;;;;;;8.48;1.75;;;;;;;13.56;89.31;96898.34;5006946;28;20034;-80
2023/10/21 10:23:58;;;;;;;8.02;1.20;;;;;;;13.64;88.67;96890.28;5007632;28;20034;-80
2023/10/21 10:26:32;;;;;;;0.80;0.80;;;;;;;13.82;88.31;96915.22;5012624;28;20509;-80
2023/10/21 10:28:59;;;;;;;1.80;0.50;;;;;;;13.66;86.66;96900.69;5009124;28;20041;-80
2023/10/21 10:31:26;;;;;;;1.98;0.73;;;;;;;13.66;87.72;96901.50;5027005;28;20033;-81
2023/10/21 10:33:51;;;;;;;8.93;1.33;;;;;;;13.82;88.60;96912.53;5029761;28;20040;-80
2023/10/21 10:36:30;;;;;;;1.33;0.70;;;;;;;13.89;86.83;96928.94;4993635;28;20029;-80
2023/10/21 10:38:56;;;;;;;1.65;0.80;;;;;;;13.84;87.79;96924.53;5008892;28;20068;-80
2023/10/21 10:41:21;;;;;;;0.47;0.38;;;;;;;13.92;86.32;96939.03;5012342;28;20053;-81
2023/10/21 10:43:54;;;;;;;2.55;0.50;;;;;;;13.84;85.13;96931.78;5029554;28;20033;-81
2023/10/21 10:46:21;;;;;;;1.42;0.73;;;;;;;13.68;86.00;96930.66;5029852;28;20056;-80
2023/10/21 10:48:47;;;;;;;0.65;0.57;;;;;;;13.71;84.86;96946.91;5017054;28;20041;-80
2023/10/21 10:51:14;;;;;;;1.85;1.00;;;;;;;13.67;83.69;96943.28;5011664;28;20127;-80
2023/10/21 10:53:40;;;;;;;0.88;0.50;;;;;;;13.80;84.30;96938.88;5014294;28;20029;-80
2023/10/21 10:56:14;;;;;;;0.40;0.40;;;;;;;13.88;83.11;96943.44;5024830;28;20095;-81
2023/10/21 10:58:42;;;;;;;0.65;0.32;;;;;;;13.96;82.68;96956.84;5004922;28;20057;-81
2023/10/21 11:01:17;;;;;;;1.13;0.50;;;;;;;13.87;82.51;96974.06;5012610;28;20571;-81
2023/10/21 11:03:43;;;;;;;0.57;0.55;;;;;;;13.88;82.19;96951.50;5006762;28;20028;-81
2023/10/21 11:06:09;;;;;;;0.73;0.73;;;;;;;13.98;81.42;96983.34;4995844;28;20075;-81
2023/10/21 11:08:36;;;;;;;1.10;0.63;;;;;;;13.96;82.00;96958.72;5003651;28;20037;-80
2023/10/21 11:11:05;;;;;;;4.97;0.52;;;;;;;14.10;80.69;96970.09;5013620;28;20025;-80
2023/10/21 11:13:32;;;;;;;0.40;0.40;;;;;;;13.96;79.33;96986.34;5028497;28;20366;-80
2023/10/21 11:15:58;;;;;;;0.63;0.30;;;;;;;13.78;79.44;96982.06;5014036;28;20030;-80
2023/10/21 11:18:26;;;;;;;0.68;0.35;;;;;;;13.79;79.82;97001.63;5031139;28;20061;-80
2023/10/21 11:20:52;;;;;;;5.15;0.60;;;;;;;13.69;80.23;96992.03;5006403;28;20029;-80
2023/10/21 11:23:19;;;;;;;6.75;1.45;;;;;;;13.46;79.96;97002.06;5025765;28;20163;-80
2023/10/21 11:25:50;;;;;;;0.82;0.52;;;;;;;13.40;79.01;96995.28;5013755;28;20084;-80
2023/10/21 11:28:16;;;;;;;1.23;0.70;;;;;;;13.45;79.62;96994.34;5013986;28;20037;-80
2023/10/21 11:30:46;;;;;;;1.65;0.57;;;;;;;13.45;80.36;97008.50;5029461;28;20454;-80
2023/10/21 11:33:11;;;;;;;2.28;0.47;;;;;;;13.41;78.98;97007.56;5005886;28;20037;-81